Time;durP1;ratioP1;P1;durP2;ratioP2;P2;SDS_P1;SDS_P2;PMS_P1;PMS_P2;Temp;Humidity;BMP_temperature;BMP_pressure;BME280_temperature;BME280_humidity;BME280_pressure;Samples;Min_cycle;Max_cycle;Signal;HPM_P1;HPM_P2
2021/10/20 00:02:08;;;;;;;217.52;200.27;;;;;;;3.83;100.00;102457.31;5056068;28;20118;-75
2021/10/20 00:04:35;;;;;;;226.88;208.68;;;;;;;3.90;100.00;102448.84;5054362;28;20045;-75
2021/10/20 00:07:01;;;;;;;205.32;188.65;;;;;;;3.89;100.00;102448.94;5052882;28;20044;-76
2021/10/20 00:09:28;;;;;;;215.73;198.20;;;;;;;3.89;100.00;102448.94;5057055;28;20222;-75
2021/10/20 00:11:55;;;;;;;214.20;196.57;;;;;;;3.81;100.00;102444.31;5058309;28;20053;-75
2021/10/20 00:14:22;;;;;;;223.43;204.77;;;;;;;3.89;100.00;102448.94;5049784;28;20049;-77
2021/10/20 00:16:50;;;;;;;236.27;217.30;;;;;;;3.81;100.00;102449.56;5055448;28;20475;-75
2021/10/20 00:19:18;;;;;;;121.88;109.32;;;;;;;3.64;100.00;102456.09;5051186;28;20041;-77
2021/10/20 00:21:45;;;;;;;123.63;111.38;;;;;;;3.82;100.00;102445.13;5055696;28;20421;-75
2021/10/20 00:24:12;;;;;;;116.88;105.03;;;;;;;3.80;100.00;102452.28;5056168;28;20118;-77
2021/10/20 00:26:39;;;;;;;114.28;102.97;;;;;;;3.74;100.00;102456.22;5052097;28;20064;-76
2021/10/20 00:29:06;;;;;;;178.20;164.10;;;;;;;3.92;100.00;102448.69;5052900;28;20118;-77
2021/10/20 00:31:32;;;;;;;113.63;102.75;;;;;;;3.79;100.00;102437.50;5043051;28;20056;-75
2021/10/20 00:33:59;;;;;;;116.15;105.00;;;;;;;3.72;100.00;102436.28;5048543;28;20448;-74
2021/10/20 00:36:27;;;;;;;116.03;104.88;;;;;;;3.77;100.00;102421.81;5053927;28;20049;-75
2021/10/20 00:38:54;;;;;;;114.43;103.75;;;;;;;3.86;100.00;102428.16;5043636;28;20488;-76
2021/10/20 00:41:21;;;;;;;129.60;110.35;;;;;;;3.87;100.00;102424.56;5053257;28;20049;-77
2021/10/20 00:43:47;;;;;;;152.35;115.32;;;;;;;3.95;100.00;102426.59;5051775;28;20052;-75
2021/10/20 00:46:25;;;;;;;121.63;104.60;;;;;;;3.97;100.00;102424.69;5047025;28;20044;-75
2021/10/20 00:48:52;;;;;;;125.72;113.32;;;;;;;3.95;100.00;102427.44;5051607;28;20118;-75
2021/10/20 00:51:19;;;;;;;115.20;103.75;;;;;;;3.70;100.00;102430.31;5052732;28;20495;-76
2021/10/20 00:53:47;;;;;;;119.00;107.43;;;;;;;3.64;100.00;102431.63;5041297;28;20048;-77
2021/10/20 00:56:14;;;;;;;125.55;113.47;;;;;;;3.71;100.00;102430.19;5054283;28;20049;-77
2021/10/20 00:58:41;;;;;;;118.25;106.47;;;;;;;3.70;100.00;102425.91;5051371;28;20107;-76
2021/10/20 01:01:07;;;;;;;114.35;103.03;;;;;;;3.66;100.00;102429.69;5049569;28;20056;-78
2021/10/20 01:03:34;;;;;;;118.13;107.20;;;;;;;3.53;100.00;102436.84;5053581;28;20476;-77
2021/10/20 01:06:04;;;;;;;123.63;112.72;;;;;;;3.65;100.00;102428.88;5051459;28;20114;-75
2021/10/20 01:08:31;;;;;;;115.55;104.85;;;;;;;3.44;100.00;102426.09;5052861;28;20047;-76
2021/10/20 01:10:59;;;;;;;114.95;104.53;;;;;;;3.53;100.00;102429.81;5054582;28;20115;-76
2021/10/20 01:13:26;;;;;;;117.90;106.18;;;;;;;3.59;100.00;102434.59;5054089;28;20106;-77
2021/10/20 01:15:53;;;;;;;122.88;108.63;;;;;;;3.68;100.00;102440.94;5056041;28;20076;-77
2021/10/20 01:18:20;;;;;;;110.78;99.68;;;;;;;3.55;100.00;102425.28;5049748;28;21242;-75
2021/10/20 01:20:51;;;;;;;110.03;99.43;;;;;;;3.43;100.00;102426.22;5045587;28;20049;-78
2021/10/20 01:23:19;;;;;;;107.45;96.95;;;;;;;3.52;100.00;102432.56;5051191;28;20132;-77
2021/10/20 01:25:46;;;;;;;108.88;97.45;;;;;;;3.62;100.00;102431.72;5052404;28;20078;-76
2021/10/20 01:28:13;;;;;;;111.70;100.65;;;;;;;3.58;100.00;102425.03;5058164;28;20452;-76
2021/10/20 01:30:40;;;;;;;112.82;101.63;;;;;;;3.40;100.00;102415.97;5049703;28;20053;-77
2021/10/20 01:33:07;;;;;;;110.57;99.03;;;;;;;3.44;100.00;102415.59;5056423;28;20115;-79
2021/10/20 01:35:34;;;;;;;107.95;97.10;;;;;;;3.43;100.00;102410.47;5045870;28;20049;-77
2021/10/20 01:38:02;;;;;;;124.40;111.55;;;;;;;3.57;100.00;102406.75;5048081;28;20548;-75
2021/10/20 01:40:30;;;;;;;109.30;98.90;;;;;;;3.57;100.00;102404.13;5050710;28;20048;-76
2021/10/20 01:42:57;;;;;;;118.05;106.95;;;;;;;3.68;100.00;102409.41;5049244;28;20448;-76
2021/10/20 01:45:23;;;;;;;104.75;94.95;;;;;;;3.34;100.00;102404.13;5052072;28;20125;-77
2021/10/20 01:47:50;;;;;;;110.88;100.40;;;;;;;3.54;100.00;102394.72;5049415;28;20052;-75
2021/10/20 01:50:17;;;;;;;104.18;94.15;;;;;;;3.34;100.00;102400.66;5047294;28;20478;-75
2021/10/20 01:52:44;;;;;;;116.15;105.30;;;;;;;3.42;100.00;102393.03;5050879;28;20535;-76
2021/10/20 01:55:12;;;;;;;114.97;104.50;;;;;;;3.44;100.00;102391.13;5049959;28;20455;-75
2021/10/20 01:57:40;;;;;;;116.63;106.03;;;;;;;3.54;100.00;102394.72;5048505;28;20114;-75
2021/10/20 02:02:47;;;;;;;135.73;123.75;;;;;;;3.87;100.00;102396.50;5081013;22;20049;-75
2021/10/20 02:05:16;;;;;;;136.70;124.45;;;;;;;3.74;100.00;102410.72;5049889;28;20057;-77
2021/10/20 02:07:42;;;;;;;133.68;121.75;;;;;;;3.79;100.00;102417.28;5045959;28;20114;-75
2021/10/20 02:10:10;;;;;;;119.10;108.20;;;;;;;3.73;100.00;102406.44;5041512;28;20455;-76
2021/10/20 02:12:37;;;;;;;109.13;99.22;;;;;;;3.79;100.00;102408.56;5044662;28;20057;-75
2021/10/20 02:15:07;;;;;;;110.65;101.40;;;;;;;3.78;100.00;102410.38;5044764;28;20057;-76
2021/10/20 02:17:34;;;;;;;122.78;112.68;;;;;;;3.71;100.00;102403.91;5043828;28;20110;-77
2021/10/20 02:20:01;;;;;;;108.75;99.15;;;;;;;3.53;100.00;102405.34;5048349;28;20049;-75
2021/10/20 02:22:28;;;;;;;121.03;110.43;;;;;;;3.56;100.00;102400.66;5050723;28;20057;-76
2021/10/20 02:24:55;;;;;;;122.13;111.47;;;;;;;3.62;100.00;102402.81;5048172;28;20103;-75
2021/10/20 02:27:22;;;;;;;103.90;94.10;;;;;;;3.68;100.00;102401.50;5043573;28;20481;-76
2021/10/20 02:29:48;;;;;;;104.72;94.57;;;;;;;3.64;100.00;102400.09;5043147;28;20475;-75
2021/10/20 02:32:16;;;;;;;109.10;98.57;;;;;;;3.70;100.00;102404.03;5048252;28;20052;-75
2021/10/20 02:34:43;;;;;;;134.98;104.22;;;;;;;3.70;100.00;102407.50;5041284;28;20055;-77
2021/10/20 02:37:10;;;;;;;113.03;101.22;;;;;;;3.81;100.00;102412.75;5048440;28;20091;-77
2021/10/20 02:39:37;;;;;;;110.82;100.70;;;;;;;3.78;100.00;102413.00;5038249;28;20138;-76
2021/10/20 02:42:03;;;;;;;117.68;106.45;;;;;;;3.82;100.00;102406.53;5048514;28;20480;-75
2021/10/20 02:44:30;;;;;;;117.15;106.45;;;;;;;3.66;100.00;102404.28;5045374;28;20475;-75
2021/10/20 02:46:57;;;;;;;104.57;94.60;;;;;;;3.76;100.00;102412.28;5047706;28;20057;-75
2021/10/20 02:49:25;;;;;;;109.75;99.47;;;;;;;3.59;100.00;102418.00;5047954;28;20461;-76
2021/10/20 02:51:52;;;;;;;106.70;95.95;;;;;;;3.30;100.00;102409.72;5047254;28;20056;-77
2021/10/20 02:54:20;;;;;;;117.00;106.32;;;;;;;3.14;100.00;102410.03;5045586;28;20441;-75
2021/10/20 02:56:46;;;;;;;116.43;105.80;;;;;;;3.36;100.00;102412.72;5047820;28;20041;-76
2021/10/20 02:59:13;;;;;;;106.95;96.72;;;;;;;3.35;100.00;102410.22;5047052;28;20041;-76
2021/10/20 03:01:40;;;;;;;102.00;92.60;;;;;;;3.36;100.00;102415.34;5049407;28;20049;-75
2021/10/20 03:04:07;;;;;;;101.72;92.45;;;;;;;3.53;100.00;102413.22;5045714;28;20056;-76
2021/10/20 03:06:35;;;;;;;89.78;81.57;;;;;;;3.15;100.00;102417.00;5048736;28;20418;-76
2021/10/20 03:09:02;;;;;;;101.80;92.50;;;;;;;3.24;100.00;102418.06;5040935;28;20044;-77
2021/10/20 03:11:28;;;;;;;90.53;82.28;;;;;;;3.10;100.00;102419.13;5046889;28;20118;-75
2021/10/20 03:13:57;;;;;;;91.63;82.93;;;;;;;3.32;100.00;102416.53;5044618;28;20061;-76
2021/10/20 03:16:23;;;;;;;97.70;88.78;;;;;;;3.40;100.00;102413.31;5049222;28;20481;-75
2021/10/20 03:18:50;;;;;;;95.20;86.70;;;;;;;3.15;100.00;102420.44;5047796;28;20049;-77
2021/10/20 03:21:17;;;;;;;100.93;92.05;;;;;;;3.26;100.00;102413.53;5044796;28;20060;-75
2021/10/20 03:23:45;;;;;;;87.25;79.18;;;;;;;2.66;100.00;102418.00;5052816;28;20115;-76
2021/10/20 03:26:12;;;;;;;91.00;82.28;;;;;;;2.74;100.00;102413.84;5050830;28;20044;-76
2021/10/20 03:28:38;;;;;;;94.22;84.95;;;;;;;2.88;100.00;102407.59;5045297;28;20057;-77
2021/10/20 03:31:05;;;;;;;120.38;109.88;;;;;;;2.74;100.00;102411.22;5051907;28;20053;-77
2021/10/20 03:33:32;;;;;;;142.10;129.70;;;;;;;2.52;100.00;102409.34;5052302;28;20552;-75
2021/10/20 03:35:59;;;;;;;140.75;128.60;;;;;;;2.76;100.00;102411.13;5052654;28;20057;-77
2021/10/20 03:38:26;;;;;;;151.52;139.13;;;;;;;2.79;100.00;102415.31;5055192;28;20045;-76
2021/10/20 03:40:54;;;;;;;105.20;94.60;;;;;;;2.86;100.00;102422.63;5044061;28;20110;-76
2021/10/20 03:43:20;;;;;;;111.50;99.68;;;;;;;2.84;100.00;102413.19;5052930;28;20539;-77
2021/10/20 03:45:47;;;;;;;125.68;113.22;;;;;;;2.65;100.00;102401.41;5050164;28;20053;-75
2021/10/20 03:48:14;;;;;;;124.22;112.53;;;;;;;2.45;100.00;102399.41;5048632;28;20175;-75
2021/10/20 03:50:41;;;;;;;125.55;114.10;;;;;;;2.36;100.00;102392.22;5052831;28;20570;-75
2021/10/20 03:53:08;;;;;;;119.57;107.88;;;;;;;2.52;100.00;102404.13;5051910;28;20535;-76
2021/10/20 03:55:34;;;;;;;105.80;94.68;;;;;;;2.34;100.00;102399.38;5052594;28;20465;-75
2021/10/20 03:58:04;;;;;;;107.72;96.18;;;;;;;2.42;100.00;102399.63;5049701;28;20040;-75
2021/10/20 04:00:31;;;;;;;114.43;101.88;;;;;;;2.65;100.00;102405.84;5051284;28;20041;-75
2021/10/20 04:02:58;;;;;;;110.45;98.55;;;;;;;2.64;100.00;102398.94;5048419;28;20140;-76
2021/10/20 04:05:25;;;;;;;107.03;94.65;;;;;;;2.61;100.00;102401.78;5051530;28;20091;-77
2021/10/20 04:07:52;;;;;;;99.43;89.10;;;;;;;2.67;100.00;102407.41;5054594;28;20106;-76
2021/10/20 04:10:21;;;;;;;100.78;90.28;;;;;;;2.74;100.00;102400.75;5051962;28;20041;-76
2021/10/20 04:12:49;;;;;;;94.43;85.60;;;;;;;2.83;100.00;102393.97;5048737;28;20044;-77
2021/10/20 04:15:19;;;;;;;93.70;84.80;;;;;;;2.88;100.00;102397.09;5049096;28;20472;-77
2021/10/20 04:21:07;;;;;;;93.95;84.88;;;;;;;2.80;100.00;102402.06;5050591;28;20454;-76
2021/10/20 04:23:34;;;;;;;99.85;90.85;;;;;;;2.93;100.00;102404.63;5049190;28;20103;-77
2021/10/20 04:26:01;;;;;;;100.53;90.88;;;;;;;2.92;100.00;102397.72;5047726;28;20123;-77
2021/10/20 04:28:27;;;;;;;101.28;91.28;;;;;;;3.07;100.00;102398.34;5050119;28;20133;-77
2021/10/20 04:30:55;;;;;;;109.55;98.72;;;;;;;3.01;100.00;102397.00;5053195;28;20111;-75
2021/10/20 04:33:22;;;;;;;113.20;101.68;;;;;;;3.05;100.00;102392.38;5049759;28;20048;-77
2021/10/20 04:35:49;;;;;;;111.90;96.63;;;;;;;3.07;100.00;102398.34;5046454;28;20040;-76
2021/10/20 04:38:16;;;;;;;108.78;94.72;;;;;;;3.20;100.00;102397.28;5051923;28;20126;-77
2021/10/20 04:40:43;;;;;;;107.63;93.10;;;;;;;3.29;100.00;102406.25;5051852;28;20041;-76
2021/10/20 04:43:10;;;;;;;108.53;97.05;;;;;;;3.36;100.00;102404.00;5049045;28;20106;-77
2021/10/20 04:45:36;;;;;;;121.15;108.97;;;;;;;3.38;100.00;102409.97;5048403;28;20049;-77
2021/10/20 04:48:05;;;;;;;133.32;121.43;;;;;;;3.44;100.00;102399.81;5052400;28;20098;-76
2021/10/20 04:50:32;;;;;;;130.05;116.93;;;;;;;3.46;100.00;102409.41;5050279;28;20049;-78
2021/10/20 04:52:59;;;;;;;138.10;124.20;;;;;;;3.29;100.00;102406.25;5048455;28;20122;-75
2021/10/20 04:55:26;;;;;;;142.85;128.38;;;;;;;3.36;100.00;102410.09;5046763;28;20049;-77
2021/10/20 04:57:54;;;;;;;138.75;124.82;;;;;;;3.46;100.00;102407.59;5048271;28;20040;-75
2021/10/20 05:00:22;;;;;;;144.80;130.48;;;;;;;3.53;100.00;102416.69;5045945;28;20041;-75
2021/10/20 05:02:49;;;;;;;142.35;127.97;;;;;;;3.29;100.00;102411.50;5047943;28;20479;-75
2021/10/20 05:05:17;;;;;;;165.48;149.68;;;;;;;3.35;100.00;102418.09;5050229;28;20087;-77
2021/10/20 05:07:50;;;;;;;146.15;131.10;;;;;;;3.31;100.00;102409.63;5049301;28;20110;-76
2021/10/20 05:10:17;;;;;;;147.20;132.43;;;;;;;3.54;100.00;102407.00;5049474;28;20122;-76
2021/10/20 05:12:44;;;;;;;156.73;139.10;;;;;;;3.38;100.00;102410.81;5049095;28;20079;-77
2021/10/20 05:15:12;;;;;;;146.43;131.15;;;;;;;3.35;100.00;102410.22;5047142;28;20451;-75
2021/10/20 05:17:39;;;;;;;163.82;147.32;;;;;;;3.51;100.00;102409.88;5048043;28;20140;-76
2021/10/20 05:20:07;;;;;;;150.32;135.15;;;;;;;3.47;100.00;102411.06;5048136;28;20048;-76
2021/10/20 05:22:35;;;;;;;157.13;131.48;;;;;;;3.31;100.00;102414.88;5049211;28;20049;-76
2021/10/20 05:25:02;;;;;;;146.25;130.38;;;;;;;3.44;100.00;102412.13;5048625;28;20057;-75
2021/10/20 05:27:29;;;;;;;144.32;128.45;;;;;;;3.35;100.00;102407.56;5047733;28;20115;-75
2021/10/20 05:29:57;;;;;;;147.20;128.65;;;;;;;3.29;100.00;102416.75;5045172;28;20045;-75
2021/10/20 05:32:25;;;;;;;147.27;125.60;;;;;;;3.40;100.00;102422.03;5049314;28;20095;-77
2021/10/20 05:34:51;;;;;;;173.23;144.68;;;;;;;3.35;100.00;102421.53;5049746;28;20539;-76
2021/10/20 05:37:18;;;;;;;162.70;145.40;;;;;;;3.55;100.00;102425.28;5049890;28;20044;-77
2021/10/20 05:39:48;;;;;;;156.90;140.32;;;;;;;3.65;100.00;102422.78;5048596;28;20110;-74
2021/10/20 05:42:15;;;;;;;161.85;146.68;;;;;;;3.87;100.00;102429.81;5046613;28;20048;-75
2021/10/20 05:44:42;;;;;;;152.77;137.68;;;;;;;4.05;100.00;102424.91;5047630;28;20468;-75
2021/10/20 05:47:09;;;;;;;157.95;141.90;;;;;;;3.89;100.00;102427.91;5047308;28;20049;-76
2021/10/20 05:49:35;;;;;;;144.88;130.85;;;;;;;3.98;100.00;102435.06;5048641;28;20189;-76
2021/10/20 05:52:02;;;;;;;155.77;141.60;;;;;;;3.99;100.00;102431.47;5051297;28;20174;-76
2021/10/20 05:54:29;;;;;;;160.77;145.30;;;;;;;4.09;100.00;102434.25;5046298;28;20049;-75
2021/10/20 05:56:57;;;;;;;169.35;154.98;;;;;;;4.13;100.00;102433.88;5048459;28;20122;-77
2021/10/20 05:59:24;;;;;;;165.88;151.18;;;;;;;4.16;100.00;102438.06;5047351;28;20045;-75
2021/10/20 06:01:51;;;;;;;170.73;155.10;;;;;;;4.29;100.00;102433.47;5046230;28;20460;-75
2021/10/20 06:04:18;;;;;;;163.68;149.50;;;;;;;4.20;100.00;102434.22;5047395;28;20053;-79
2021/10/20 06:06:45;;;;;;;166.82;151.90;;;;;;;4.46;100.00;102441.81;5047169;28;20551;-78
2021/10/20 06:09:12;;;;;;;165.48;151.90;;;;;;;4.66;100.00;102448.09;5049606;28;20045;-77
2021/10/20 06:11:39;;;;;;;173.38;159.23;;;;;;;4.63;100.00;102459.72;5046361;28;20480;-75
2021/10/20 06:14:07;;;;;;;179.98;165.90;;;;;;;4.53;100.00;102450.88;5050264;28;20049;-76
2021/10/20 06:16:36;;;;;;;172.95;158.85;;;;;;;5.12;100.00;102462.75;5044361;28;20049;-76
2021/10/20 06:19:03;;;;;;;164.50;150.52;;;;;;;4.86;100.00;102459.63;5045400;28;20460;-76
2021/10/20 06:21:30;;;;;;;165.15;150.68;;;;;;;5.14;100.00;102466.09;5048308;28;20048;-77
2021/10/20 06:23:57;;;;;;;164.95;151.57;;;;;;;5.18;100.00;102464.88;5047595;28;20540;-76
2021/10/20 06:26:24;;;;;;;152.32;139.93;;;;;;;5.45;100.00;102464.38;5047818;28;20401;-76
2021/10/20 06:28:51;;;;;;;174.23;160.18;;;;;;;7.53;100.00;102458.19;5046887;28;20045;-77
2021/10/20 06:31:19;;;;;;;146.85;135.82;;;;;;;6.24;100.00;102456.69;5045402;28;20044;-77
2021/10/20 06:33:46;;;;;;;149.93;138.70;;;;;;;6.06;100.00;102466.22;5048643;28;20045;-76
2021/10/20 06:36:20;;;;;;;152.02;140.60;;;;;;;6.13;100.00;102459.44;5046172;28;20106;-77
2021/10/20 06:38:47;;;;;;;166.07;153.05;;;;;;;6.48;100.00;102458.97;5046760;28;20102;-76
2021/10/20 06:41:13;;;;;;;146.65;135.00;;;;;;;6.41;100.00;102460.47;5048777;28;20045;-76
2021/10/20 06:43:41;;;;;;;163.15;150.02;;;;;;;7.32;100.00;102463.66;5048564;28;20049;-77
2021/10/20 06:46:09;;;;;;;152.48;140.57;;;;;;;7.55;100.00;102466.84;5049368;28;20106;-76
2021/10/20 06:48:37;;;;;;;148.65;137.65;;;;;;;7.33;100.00;102463.53;5048518;28;20045;-76
2021/10/20 06:51:04;;;;;;;152.73;141.57;;;;;;;8.26;100.00;102461.00;5045830;28;20107;-76
2021/10/20 06:53:30;;;;;;;137.85;127.07;;;;;;;8.42;100.00;102463.00;5049241;28;20053;-77
2021/10/20 06:55:57;;;;;;;120.57;111.32;;;;;;;8.47;100.00;102463.38;5046527;28;20045;-76
2021/10/20 06:58:24;;;;;;;125.13;115.43;;;;;;;8.99;100.00;102465.38;5048677;28;20482;-77
2021/10/20 07:00:51;;;;;;;118.18;109.53;;;;;;;9.40;100.00;102469.97;5052586;28;20037;-76
2021/10/20 07:03:17;;;;;;;112.63;104.60;;;;;;;9.37;100.00;102465.00;5048938;28;20048;-76
2021/10/20 07:05:45;;;;;;;111.25;103.20;;;;;;;9.95;100.00;102460.00;5053481;28;20135;-76
2021/10/20 07:08:12;;;;;;;97.95;91.30;;;;;;;9.62;100.00;102460.69;5053267;28;20053;-76
2021/10/20 07:10:39;;;;;;;102.50;95.65;;;;;;;10.58;100.00;102461.41;5050309;28;20103;-76
2021/10/20 07:13:06;;;;;;;99.05;91.85;;;;;;;10.93;100.00;102463.78;5052027;28;20118;-79
2021/10/20 07:15:33;;;;;;;98.85;91.20;;;;;;;10.35;100.00;102455.88;5051439;28;20122;-76
2021/10/20 07:17:59;;;;;;;111.40;103.70;;;;;;;11.15;100.00;102456.13;5050649;28;20114;-76
2021/10/20 07:20:26;;;;;;;92.78;86.25;;;;;;;11.56;100.00;102458.72;5051883;28;20194;-78
2021/10/20 07:22:54;;;;;;;92.45;85.80;;;;;;;11.55;100.00;102457.06;5053808;28;20048;-77
2021/10/20 07:25:21;;;;;;;83.53;77.30;;;;;;;12.01;100.00;102459.94;5049837;28;20114;-77
2021/10/20 07:27:48;;;;;;;81.05;75.05;;;;;;;12.02;100.00;102450.97;5051344;28;20145;-77
2021/10/20 07:30:16;;;;;;;86.30;79.15;;;;;;;11.40;100.00;102446.28;5050793;28;20103;-76
2021/10/20 07:32:44;;;;;;;101.40;93.28;;;;;;;12.31;100.00;102447.63;5051470;28;20137;-78
2021/10/20 07:35:12;;;;;;;87.15;79.93;;;;;;;12.41;100.00;102442.94;5053038;28;20455;-77
2021/10/20 07:37:40;;;;;;;95.95;88.63;;;;;;;11.99;100.00;102454.78;5053444;28;20045;-77
2021/10/20 07:40:10;;;;;;;87.70;80.63;;;;;;;13.22;100.00;102440.63;5050755;28;20453;-77
2021/10/20 07:42:39;;;;;;;77.88;71.38;;;;;;;13.31;100.00;102441.41;5051140;28;20175;-78
2021/10/20 07:45:08;;;;;;;70.30;64.82;;;;;;;13.91;100.00;102443.88;5044584;28;20504;-77
2021/10/20 07:47:35;;;;;;;66.63;61.53;;;;;;;14.13;100.00;102435.94;5049561;28;20520;-77
2021/10/20 07:50:02;;;;;;;67.95;62.80;;;;;;;14.79;100.00;102430.47;5050738;28;20118;-77
2021/10/20 07:52:29;;;;;;;62.33;57.67;;;;;;;14.86;100.00;102429.53;5052811;28;20102;-77
2021/10/20 07:54:56;;;;;;;61.92;57.00;;;;;;;14.58;100.00;102434.84;5050851;28;20047;-77
2021/10/20 07:57:24;;;;;;;64.00;59.00;;;;;;;15.55;100.00;102433.28;5050442;28;20056;-78
2021/10/20 07:59:51;;;;;;;57.90;53.70;;;;;;;15.83;100.00;102435.97;5048800;28;20535;-77
2021/10/20 08:02:18;;;;;;;52.22;48.13;;;;;;;16.21;100.00;102430.94;5050566;28;20053;-79
2021/10/20 08:04:45;;;;;;;53.25;49.38;;;;;;;16.42;100.00;102431.81;5050534;28;20467;-78
2021/10/20 08:07:11;;;;;;;50.97;47.15;;;;;;;16.03;100.00;102436.84;5053809;28;20045;-77
2021/10/20 08:09:38;;;;;;;51.90;47.70;;;;;;;16.58;100.00;102426.09;5051902;28;20511;-77
2021/10/20 08:12:05;;;;;;;54.50;49.55;;;;;;;16.36;100.00;102421.91;5050141;28;20045;-77
2021/10/20 08:14:34;;;;;;;54.63;50.17;;;;;;;16.77;100.00;102426.34;5049100;28;20057;-78
2021/10/20 08:17:01;;;;;;;58.08;53.58;;;;;;;15.60;100.00;102428.19;5049665;28;20049;-77
2021/10/20 08:19:28;;;;;;;49.97;45.97;;;;;;;16.10;100.00;102420.81;5051316;28;20738;-79
2021/10/20 08:21:54;;;;;;;52.78;48.47;;;;;;;14.72;100.00;102426.94;5052684;28;20057;-77
2021/10/20 08:24:21;;;;;;;60.75;55.83;;;;;;;15.22;100.00;102425.03;5050142;28;20053;-77
2021/10/20 08:26:48;;;;;;;61.33;56.60;;;;;;;15.15;100.00;102422.34;5050708;28;20469;-77
2021/10/20 08:29:14;;;;;;;62.60;57.83;;;;;;;16.44;100.00;102417.19;5050545;28;20048;-77
2021/10/20 08:31:42;;;;;;;67.00;62.10;;;;;;;17.09;100.00;102416.63;5020309;28;20076;-77
2021/10/20 08:34:09;;;;;;;58.55;54.25;;;;;;;17.26;100.00;102417.03;5053694;28;21776;-77
2021/10/20 08:36:36;;;;;;;57.45;53.08;;;;;;;15.81;100.00;102421.94;5049441;28;20111;-77
2021/10/20 08:39:03;;;;;;;55.80;51.80;;;;;;;18.04;100.00;102417.00;5049134;28;20542;-77
2021/10/20 08:41:30;;;;;;;60.83;56.28;;;;;;;16.83;100.00;102410.25;5054090;28;20041;-77
2021/10/20 08:43:58;;;;;;;59.67;55.35;;;;;;;16.91;100.00;102412.72;5043372;28;20045;-79
2021/10/20 08:46:26;;;;;;;63.70;58.92;;;;;;;17.21;100.00;102417.63;5049151;28;20450;-77
2021/10/20 08:48:56;;;;;;;65.70;61.00;;;;;;;17.74;100.00;102414.81;5047129;28;20052;-77
2021/10/20 08:51:24;;;;;;;46.67;42.85;;;;;;;17.67;100.00;102413.19;5046414;28;20045;-77
2021/10/20 08:53:50;;;;;;;47.15;43.42;;;;;;;18.04;100.00;102415.13;5049564;28;20064;-77
2021/10/20 08:56:18;;;;;;;46.00;42.60;;;;;;;18.94;100.00;102408.75;5052258;28;20106;-77
2021/10/20 08:58:45;;;;;;;46.33;42.83;;;;;;;17.74;100.00;102405.94;5048833;28;20052;-77
2021/10/20 09:01:12;;;;;;;44.92;41.25;;;;;;;17.79;100.00;102412.38;5048159;28;20061;-77
2021/10/20 09:03:38;;;;;;;46.97;43.28;;;;;;;18.15;100.00;102412.78;5046209;28;20041;-77
2021/10/20 09:06:07;;;;;;;49.40;45.63;;;;;;;18.33;100.00;102410.19;5048602;28;20374;-77
2021/10/20 09:08:41;;;;;;;62.08;57.97;;;;;;;18.71;100.00;102404.78;5046972;28;20038;-78
2021/10/20 09:11:21;;;;;;;62.92;58.45;;;;;;;18.73;100.00;102399.22;5047832;28;20049;-77
2021/10/20 09:13:47;;;;;;;68.53;63.97;;;;;;;18.29;100.00;102407.13;5049022;28;20049;-77
2021/10/20 09:16:20;;;;;;;65.97;61.38;;;;;;;16.76;100.00;102400.53;5046922;28;20114;-77
2021/10/20 09:18:46;;;;;;;61.13;56.72;;;;;;;17.15;100.00;102407.72;5051268;28;20461;-78
2021/10/20 09:21:14;;;;;;;53.92;50.10;;;;;;;17.10;100.00;102405.69;5047794;28;20511;-78
2021/10/20 09:23:41;;;;;;;60.28;55.80;;;;;;;18.02;100.00;102400.25;5047005;28;20049;-78
2021/10/20 09:26:10;;;;;;;58.92;54.55;;;;;;;20.11;100.00;102392.50;5046748;28;20114;-78
2021/10/20 09:28:39;;;;;;;53.33;49.83;;;;;;;16.96;100.00;102395.16;5048779;28;20057;-77
2021/10/20 09:31:07;;;;;;;54.78;50.60;;;;;;;18.19;100.00;102392.53;5049553;28;20049;-78
2021/10/20 09:33:36;;;;;;;54.85;50.65;;;;;;;17.27;100.00;102384.56;5050903;28;20045;-76
2021/10/20 09:36:03;;;;;;;54.33;50.42;;;;;;;17.04;100.00;102381.53;5049100;28;20057;-76
2021/10/20 09:38:34;;;;;;;58.05;53.95;;;;;;;20.34;100.00;102376.41;5048640;28;20486;-76
2021/10/20 09:41:04;;;;;;;57.15;52.90;;;;;;;20.45;100.00;102377.47;5047497;28;20052;-76
2021/10/20 09:43:31;;;;;;;44.13;40.63;;;;;;;20.28;100.00;102371.13;5046248;28;20044;-76
2021/10/20 09:45:58;;;;;;;45.00;41.67;;;;;;;19.37;100.00;102372.91;5041676;28;20382;-76
2021/10/20 09:48:26;;;;;;;69.97;65.10;;;;;;;17.58;100.00;102383.06;5049385;28;20048;-76
2021/10/20 09:51:04;;;;;;;74.05;68.97;;;;;;;19.28;100.00;102366.16;5044407;28;20048;-77
2021/10/20 09:53:34;;;;;;;68.68;63.78;;;;;;;20.56;100.00;102357.81;5051149;28;20053;-78
2021/10/20 09:56:02;;;;;;;72.18;67.30;;;;;;;20.01;100.00;102359.88;5045606;28;20123;-78
2021/10/20 09:58:32;;;;;;;64.53;60.30;;;;;;;20.04;100.00;102367.53;5044761;28;20060;-76
2021/10/20 10:01:01;;;;;;;63.30;59.10;;;;;;;20.94;100.00;102356.56;5048149;28;20045;-77
2021/10/20 10:03:27;;;;;;;44.83;41.38;;;;;;;21.58;100.00;102361.97;5042557;28;20044;-77
2021/10/20 10:05:54;;;;;;;46.53;43.35;;;;;;;20.69;100.00;102359.47;5048758;28;20056;-77
2021/10/20 10:08:21;;;;;;;44.72;41.65;;;;;;;21.28;100.00;102356.75;5050853;28;20134;-77
2021/10/20 10:10:51;;;;;;;65.63;61.72;;;;;;;22.18;100.00;102355.28;5049194;28;20041;-77
2021/10/20 10:13:23;;;;;;;64.43;60.58;;;;;;;23.34;86.09;102341.03;5048747;28;20114;-77
2021/10/20 10:15:51;;;;;;;64.97;61.08;;;;;;;22.24;95.33;102348.91;5044032;28;20072;-78
2021/10/20 10:18:19;;;;;;;65.55;61.50;;;;;;;20.63;100.00;102338.78;5049179;28;20049;-77
2021/10/20 10:20:46;;;;;;;59.97;56.38;;;;;;;21.20;86.87;102341.69;5048269;28;20041;-77
2021/10/20 10:23:24;;;;;;;54.22;50.75;;;;;;;19.90;100.00;102339.91;5048567;28;20057;-78
2021/10/20 10:26:01;;;;;;;43.38;40.08;;;;;;;21.59;95.83;102339.28;5046729;28;20049;-77
2021/10/20 10:28:29;;;;;;;43.50;40.25;;;;;;;22.55;86.98;102322.31;5048237;28;20049;-77
2021/10/20 10:30:57;;;;;;;67.45;63.15;;;;;;;21.79;92.06;102330.75;5044907;28;20114;-78
2021/10/20 10:33:25;;;;;;;58.42;54.63;;;;;;;22.54;82.02;102326.06;5044668;28;20054;-77
2021/10/20 10:36:11;;;;;;;64.63;60.30;;;;;;;20.81;94.46;102313.56;5043989;28;20213;-77
2021/10/20 10:38:40;;;;;;;64.10;59.80;;;;;;;21.67;100.00;102317.28;5041174;28;20140;-77
2021/10/20 10:41:26;;;;;;;70.32;65.97;;;;;;;21.16;89.72;102315.41;5045668;28;20527;-77
2021/10/20 10:44:17;;;;;;;63.25;59.33;;;;;;;21.92;83.23;102313.41;5044052;28;20049;-79
2021/10/20 10:47:05;;;;;;;68.18;63.85;;;;;;;23.48;71.72;102300.78;5045276;28;21284;-77
2021/10/20 10:49:35;;;;;;;44.53;41.65;;;;;;;21.71;81.86;102307.63;5042241;28;20111;-76
2021/10/20 10:52:17;;;;;;;73.10;68.90;;;;;;;20.76;98.20;102308.88;5052173;28;20072;-76
2021/10/20 10:54:55;;;;;;;63.20;59.15;;;;;;;20.78;99.81;102300.53;5046603;28;20135;-77
2021/10/20 10:57:24;;;;;;;64.90;60.90;;;;;;;20.36;96.62;102293.38;5046913;28;20044;-76
2021/10/20 10:59:54;;;;;;;58.47;54.67;;;;;;;22.20;81.42;102282.78;5046999;28;20459;-76
2021/10/20 11:02:39;;;;;;;60.85;57.03;;;;;;;20.76;87.26;102290.00;5047388;28;20140;-76
2021/10/20 11:05:07;;;;;;;62.40;58.40;;;;;;;21.26;100.00;102280.50;5043872;28;20077;-77
2021/10/20 11:07:34;;;;;;;46.10;42.90;;;;;;;22.72;83.68;102268.13;5046510;28;20130;-77
2021/10/20 11:10:02;;;;;;;46.45;42.83;;;;;;;20.65;100.00;102271.91;5048130;28;20053;-77